Time;durP1;ratioP1;P1;durP2;ratioP2;P2;SDS_P1;SDS_P2;PMS_P1;PMS_P2;Temp;Humidity;BMP_temperature;BMP_pressure;BME280_temperature;BME280_humidity;BME280_pressure;Samples;Min_cycle;Max_cycle;Signal;HPM_P1;HPM_P2
2023/10/16 00:01:57;;;;;;;15.47;4.97;;;;;;;;;;5032680;28;20625;-41
2023/10/16 00:04:24;;;;;;;15.40;4.60;;;;;;;;;;5032939;28;20271;-41
2023/10/16 00:06:52;;;;;;;14.33;4.87;;;;;;;;;;5032860;28;20251;-41
2023/10/16 00:09:22;;;;;;;12.20;3.80;;;;;;;;;;5032584;28;20255;-41
2023/10/16 00:11:49;;;;;;;18.43;6.60;;;;;;;;;;5032588;28;20299;-41
2023/10/16 00:14:30;;;;;;;10.37;4.43;;;;;;;;;;5033004;28;20441;-42
2023/10/16 00:16:58;;;;;;;9.98;3.63;;;;;;;;;;5032693;28;20215;-41
2023/10/16 00:19:25;;;;;;;13.90;4.60;;;;;;;;;;5032420;28;20664;-41
2023/10/16 00:21:52;;;;;;;16.37;4.60;;;;;;;;;;5032582;28;20201;-42
2023/10/16 00:24:19;;;;;;;10.17;4.40;;;;;;;;;;5032300;28;20271;-41
2023/10/16 00:26:50;;;;;;;9.30;2.90;;;;;;;;;;5032411;28;20231;-42
2023/10/16 00:29:24;;;;;;;11.47;4.50;;;;;;;;;;5014949;28;20189;-41
2023/10/16 00:31:51;;;;;;;11.07;4.90;;;;;;;;;;5032382;28;20251;-41
2023/10/16 00:34:21;;;;;;;9.20;3.70;;;;;;;;;;5032551;28;20205;-41
2023/10/16 00:36:55;;;;;;;8.03;3.90;;;;;;;;;;5032185;28;20716;-41
2023/10/16 00:39:28;;;;;;;10.00;4.70;;;;;;;;;;5032105;28;20209;-41
2023/10/16 00:42:00;;;;;;;9.70;4.30;;;;;;;;;;5014803;28;20217;-42
2023/10/16 00:44:33;;;;;;;9.43;3.85;;;;;;;;;;5014209;28;20195;-41
2023/10/16 00:47:04;;;;;;;10.03;4.67;;;;;;;;;;5031855;28;20189;-42
2023/10/16 00:49:34;;;;;;;6.28;2.70;;;;;;;;;;5014423;28;20574;-41
2023/10/16 00:52:05;;;;;;;10.57;3.20;;;;;;;;;;5031717;28;20287;-42
2023/10/16 00:54:38;;;;;;;10.47;3.83;;;;;;;;;;5014780;28;20205;-41
2023/10/16 00:57:08;;;;;;;6.97;3.30;;;;;;;;;;5014441;28;20219;-41
2023/10/16 00:59:35;;;;;;;10.43;3.63;;;;;;;;;;5031789;28;20665;-41
2023/10/16 01:04:43;;;;;;;8.95;3.47;;;;;;;;;;5007464;28;20201;-41
2023/10/16 01:07:14;;;;;;;4.18;2.58;;;;;;;;;;5012058;28;20249;-41
2023/10/16 01:09:46;;;;;;;7.17;3.23;;;;;;;;;;4994490;28;20198;-41
2023/10/16 01:12:15;;;;;;;5.77;3.00;;;;;;;;;;4994597;28;20225;-41
2023/10/16 01:14:44;;;;;;;12.00;3.57;;;;;;;;;;5011321;28;20205;-42
2023/10/16 01:17:12;;;;;;;7.70;3.00;;;;;;;;;;5011786;28;20210;-41
2023/10/16 01:19:43;;;;;;;7.17;3.10;;;;;;;;;;5011652;28;20216;-41
2023/10/16 01:22:11;;;;;;;5.23;2.87;;;;;;;;;;5011787;28;20733;-41
2023/10/16 01:24:43;;;;;;;5.60;2.87;;;;;;;;;;5012021;28;20208;-41
2023/10/16 01:27:26;;;;;;;5.20;2.43;;;;;;;;;;5011595;28;20234;-42
2023/10/16 01:29:57;;;;;;;9.17;3.13;;;;;;;;;;5011777;28;20669;-42
2023/10/16 01:32:25;;;;;;;6.10;2.73;;;;;;;;;;5011750;28;20225;-43
2023/10/16 01:34:53;;;;;;;6.28;2.78;;;;;;;;;;4994456;28;20216;-42
2023/10/16 01:37:20;;;;;;;6.27;2.50;;;;;;;;;;5011752;28;20532;-41
2023/10/16 01:39:53;;;;;;;5.10;2.75;;;;;;;;;;5011730;28;20205;-41
2023/10/16 01:42:21;;;;;;;4.82;2.50;;;;;;;;;;4994531;28;20280;-41
2023/10/16 01:44:52;;;;;;;4.07;1.95;;;;;;;;;;5011889;28;20210;-42
2023/10/16 01:47:19;;;;;;;4.18;2.28;;;;;;;;;;5011510;28;20660;-42
2023/10/16 01:49:50;;;;;;;5.40;2.20;;;;;;;;;;5011638;28;20211;-42
2023/10/16 01:52:17;;;;;;;6.88;2.30;;;;;;;;;;5011510;28;20235;-41
2023/10/16 01:54:46;;;;;;;6.32;2.53;;;;;;;;;;4994361;28;20250;-41
2023/10/16 01:57:14;;;;;;;3.33;1.93;;;;;;;;;;5011433;28;20209;-42
2023/10/16 01:59:47;;;;;;;8.82;2.67;;;;;;;;;;4994220;28;20209;-41
2023/10/16 02:02:17;;;;;;;6.93;2.25;;;;;;;;;;4994253;28;20196;-41
2023/10/16 02:04:45;;;;;;;4.67;2.07;;;;;;;;;;4994001;28;20742;-41
2023/10/16 02:07:13;;;;;;;3.67;2.33;;;;;;;;;;5011611;28;20205;-43
2023/10/16 02:09:40;;;;;;;4.60;2.30;;;;;;;;;;4993837;28;20685;-40
2023/10/16 02:12:14;;;;;;;4.43;1.97;;;;;;;;;;5011423;28;20248;-41
2023/10/16 02:14:44;;;;;;;6.83;2.57;;;;;;;;;;4993860;28;20208;-42
2023/10/16 02:17:23;;;;;;;8.67;2.53;;;;;;;;;;5011198;28;20736;-42
2023/10/16 02:19:51;;;;;;;4.60;2.23;;;;;;;;;;5011619;28;20205;-41
2023/10/16 02:22:18;;;;;;;3.77;2.17;;;;;;;;;;5011519;28;20212;-40
2023/10/16 02:24:49;;;;;;;4.63;2.40;;;;;;;;;;5011132;28;20445;-40
2023/10/16 02:27:18;;;;;;;10.67;2.33;;;;;;;;;;5011269;28;20248;-40
2023/10/16 02:29:49;;;;;;;6.33;2.23;;;;;;;;;;4993926;28;20536;-41
2023/10/16 02:32:16;;;;;;;5.10;2.27;;;;;;;;;;4995581;28;20312;-40
2023/10/16 02:34:43;;;;;;;4.22;1.98;;;;;;;;;;5014712;28;20213;-43
2023/10/16 02:37:14;;;;;;;5.13;2.40;;;;;;;;;;5014883;28;20289;-41
2023/10/16 02:39:50;;;;;;;4.53;2.30;;;;;;;;;;5014468;28;20190;-40
2023/10/16 02:42:17;;;;;;;3.37;2.27;;;;;;;;;;5014581;28;20228;-40
2023/10/16 02:44:47;;;;;;;4.00;2.10;;;;;;;;;;5014358;28;20201;-40
2023/10/16 02:47:25;;;;;;;3.55;2.08;;;;;;;;;;5014253;28;20228;-40
2023/10/16 02:49:56;;;;;;;4.63;1.93;;;;;;;;;;5014460;28;20209;-41
2023/10/16 02:52:24;;;;;;;4.85;1.88;;;;;;;;;;5014205;28;20225;-42
2023/10/16 02:54:56;;;;;;;7.05;2.50;;;;;;;;;;5014151;28;20259;-40
2023/10/16 02:57:27;;;;;;;6.33;2.50;;;;;;;;;;5014420;28;20201;-40
2023/10/16 02:59:54;;;;;;;5.50;2.55;;;;;;;;;;5014073;28;20588;-41
2023/10/16 03:02:26;;;;;;;6.73;2.30;;;;;;;;;;5014414;28;20209;-41
2023/10/16 03:05:09;;;;;;;11.60;3.13;;;;;;;;;;5014066;28;20185;-40
2023/10/16 03:07:39;;;;;;;6.00;2.35;;;;;;;;;;4996577;28;20451;-42
2023/10/16 03:10:08;;;;;;;6.70;2.60;;;;;;;;;;4996820;28;20209;-41
2023/10/16 03:12:36;;;;;;;4.00;2.30;;;;;;;;;;4996494;28;20244;-40
2023/10/16 03:15:14;;;;;;;4.93;1.98;;;;;;;;;;5013934;28;20198;-41
2023/10/16 03:17:42;;;;;;;7.22;2.10;;;;;;;;;;5013742;28;20189;-41
2023/10/16 03:20:20;;;;;;;3.07;1.87;;;;;;;;;;5013790;28;20205;-41
2023/10/16 03:22:50;;;;;;;4.63;2.20;;;;;;;;;;5013812;28;20213;-41
2023/10/16 03:28:05;;;;;;;9.13;2.50;;;;;;;;;;4996219;28;20292;-41
2023/10/16 03:30:33;;;;;;;6.53;1.92;;;;;;;;;;4996061;28;20205;-40
2023/10/16 03:33:03;;;;;;;5.38;1.88;;;;;;;;;;5013433;28;20727;-41
2023/10/16 03:35:31;;;;;;;4.25;2.40;;;;;;;;;;5013517;28;20272;-41
2023/10/16 03:37:59;;;;;;;12.27;2.30;;;;;;;;;;5013638;28;20197;-40
2023/10/16 03:40:30;;;;;;;3.53;1.95;;;;;;;;;;5013415;28;20614;-40
2023/10/16 03:42:58;;;;;;;4.60;2.10;;;;;;;;;;5013169;28;20193;-43
2023/10/16 03:45:26;;;;;;;4.25;2.22;;;;;;;;;;5013476;28;20669;-42
2023/10/16 03:47:57;;;;;;;3.63;2.08;;;;;;;;;;5013118;28;20820;-42
2023/10/16 03:50:26;;;;;;;4.57;2.45;;;;;;;;;;5013516;28;20216;-41
2023/10/16 03:52:54;;;;;;;2.72;1.77;;;;;;;;;;5013138;28;20229;-41
2023/10/16 03:55:22;;;;;;;4.85;2.15;;;;;;;;;;4997315;28;20245;-42
2023/10/16 03:57:55;;;;;;;4.05;2.00;;;;;;;;;;5016440;28;20318;-42
2023/10/16 04:00:27;;;;;;;2.67;1.90;;;;;;;;;;5015257;28;20217;-41
2023/10/16 04:02:59;;;;;;;4.33;2.37;;;;;;;;;;5012257;28;20235;-42
2023/10/16 04:05:29;;;;;;;4.00;2.17;;;;;;;;;;5012426;28;20318;-41
2023/10/16 04:07:57;;;;;;;71.47;25.42;;;;;;;;;;5011906;28;20229;-41
2023/10/16 04:10:28;;;;;;;9.05;4.20;;;;;;;;;;4960202;28;20214;-40
2023/10/16 04:12:57;;;;;;;8.40;2.75;;;;;;;;;;5009083;28;20221;-41
2023/10/16 04:20:56;;;;;;;5.45;2.92;;;;;;;;;;5011810;28;20252;-43
2023/10/16 04:31:56;;;;;;;5.13;2.33;;;;;;;;;;4995931;28;20333;-42
2023/10/16 04:34:31;;;;;;;5.72;2.53;;;;;;;;;;5010075;28;20706;-42
2023/10/16 04:42:50;;;;;;;7.05;3.05;;;;;;;;;;4969645;28;20662;-40
2023/10/16 04:53:21;;;;;;;7.70;3.28;;;;;;;;;;4969458;28;20719;-40
2023/10/16 06:14:09;;;;;;;5.50;2.50;;;;;;;;;;4991668;28;20232;-41
2023/10/16 06:14:36;;;;;;;3.92;2.08;;;;;;;;;;4995419;28;20663;-42
2023/10/16 06:17:13;;;;;;;2.83;2.20;;;;;;;;;;4995349;28;20208;-41
2023/10/16 06:19:42;;;;;;;3.72;2.22;;;;;;;;;;4995691;28;20193;-40
2023/10/16 06:22:11;;;;;;;7.07;3.00;;;;;;;;;;4995429;28;20210;-41
2023/10/16 06:24:44;;;;;;;6.72;2.65;;;;;;;;;;4995229;28;20293;-41
2023/10/16 06:27:19;;;;;;;5.35;2.47;;;;;;;;;;4995100;28;20586;-40
2023/10/16 06:29:50;;;;;;;5.68;2.45;;;;;;;;;;4995387;28;20224;-41
2023/10/16 06:32:25;;;;;;;6.20;2.97;;;;;;;;;;4995457;28;20205;-41
2023/10/16 06:35:07;;;;;;;6.57;2.78;;;;;;;;;;4995296;28;20236;-41
2023/10/16 06:37:38;;;;;;;6.13;2.85;;;;;;;;;;4995237;28;20547;-41
2023/10/16 06:40:15;;;;;;;4.35;2.40;;;;;;;;;;4995026;28;20224;-41
2023/10/16 06:42:46;;;;;;;6.97;2.28;;;;;;;;;;4994975;28;20214;-42
2023/10/16 06:45:19;;;;;;;5.97;3.15;;;;;;;;;;4994907;28;20289;-42
2023/10/16 06:47:49;;;;;;;5.75;2.28;;;;;;;;;;4995142;28;20578;-42
2023/10/16 06:53:03;;;;;;;6.07;2.40;;;;;;;;;;4994854;28;20233;-42
2023/10/16 06:55:30;;;;;;;3.95;2.38;;;;;;;;;;4994749;28;20241;-41
2023/10/16 06:57:57;;;;;;;4.90;2.78;;;;;;;;;;4994677;28;20217;-42
2023/10/16 07:00:32;;;;;;;7.28;2.60;;;;;;;;;;4994631;28;20224;-41
2023/10/16 07:03:09;;;;;;;8.10;2.47;;;;;;;;;;4994599;28;20206;-42
2023/10/16 07:05:42;;;;;;;3.60;2.60;;;;;;;;;;4994477;28;20655;-41
2023/10/16 07:08:18;;;;;;;5.35;2.83;;;;;;;;;;4994466;28;20613;-41
2023/10/16 07:10:51;;;;;;;5.28;2.53;;;;;;;;;;4994355;28;20215;-41
2023/10/16 07:13:31;;;;;;;3.10;2.30;;;;;;;;;;4994331;28;20316;-41
2023/10/16 07:16:01;;;;;;;3.45;2.47;;;;;;;;;;4994513;28;20209;-41
2023/10/16 07:18:33;;;;;;;6.63;2.42;;;;;;;;;;4993625;28;20202;-41
2023/10/16 07:23:37;;;;;;;5.93;2.42;;;;;;;;;;4994050;28;20281;-41
2023/10/16 07:26:06;;;;;;;4.10;2.90;;;;;;;;;;4994216;28;20238;-41
2023/10/16 07:28:34;;;;;;;7.05;3.08;;;;;;;;;;4994439;28;20213;-41
2023/10/16 07:31:05;;;;;;;9.00;3.30;;;;;;;;;;4994352;28;20268;-41
2023/10/16 07:33:33;;;;;;;6.10;3.05;;;;;;;;;;4994438;28;20237;-41
2023/10/16 07:36:00;;;;;;;7.28;3.28;;;;;;;;;;4993925;28;20657;-41
2023/10/16 07:38:30;;;;;;;5.07;2.85;;;;;;;;;;4994040;28;20217;-42
2023/10/16 07:40:59;;;;;;;6.38;2.92;;;;;;;;;;4993852;28;20206;-40
2023/10/16 07:43:28;;;;;;;7.38;3.22;;;;;;;;;;4993901;28;20214;-41
2023/10/16 07:48:50;;;;;;;6.30;2.85;;;;;;;;;;4993853;28;20235;-41
2023/10/16 07:51:20;;;;;;;7.30;3.17;;;;;;;;;;4993700;28;20667;-41
2023/10/16 07:53:48;;;;;;;6.35;3.20;;;;;;;;;;4993693;28;20233;-41
2023/10/16 07:56:25;;;;;;;5.30;3.10;;;;;;;;;;4993764;28;20206;-42
2023/10/16 07:59:35;;;;;;;4.28;2.85;;;;;;;;;;4994155;28;20201;-40
2023/10/16 08:02:08;;;;;;;6.80;3.35;;;;;;;;;;4993425;28;20194;-42
2023/10/16 08:04:35;;;;;;;6.43;3.53;;;;;;;;;;4993765;28;20252;-43
2023/10/16 08:07:16;;;;;;;7.05;3.60;;;;;;;;;;4993378;28;20269;-41
2023/10/16 08:12:34;;;;;;;6.47;3.20;;;;;;;;;;4993368;28;20205;-41
2023/10/16 08:15:09;;;;;;;5.22;3.20;;;;;;;;;;4993693;28;20205;-41
2023/10/16 08:17:36;;;;;;;3.70;2.85;;;;;;;;;;4993189;28;20213;-41
2023/10/16 08:20:07;;;;;;;5.75;3.33;;;;;;;;;;4993050;28;20202;-41
2023/10/16 08:22:35;;;;;;;4.25;3.05;;;;;;;;;;4993370;28;20261;-42
2023/10/16 08:25:04;;;;;;;7.45;3.67;;;;;;;;;;4993217;28;20202;-41
2023/10/16 08:30:32;;;;;;;5.05;3.03;;;;;;;;;;4993101;28;20666;-41
2023/10/16 08:33:07;;;;;;;5.88;3.28;;;;;;;;;;4993040;28;20229;-43
2023/10/16 08:35:41;;;;;;;4.75;3.15;;;;;;;;;;4992907;28;20201;-41
2023/10/16 08:38:51;;;;;;;6.97;3.20;;;;;;;;;;4975690;28;20205;-41
2023/10/16 08:41:07;;;;;;;4.47;3.38;;;;;;;;;;4989548;28;20214;-42
2023/10/16 08:43:54;;;;;;;5.28;2.90;;;;;;;;;;4992770;28;20206;-41
2023/10/16 08:46:34;;;;;;;5.25;3.13;;;;;;;;;;4992841;28;20202;-41
2023/10/16 08:49:02;;;;;;;7.90;3.38;;;;;;;;;;4992602;28;20210;-41
2023/10/16 08:51:30;;;;;;;4.47;2.63;;;;;;;;;;4992745;28;20207;-41
2023/10/16 08:54:02;;;;;;;2.80;1.92;;;;;;;;;;4992406;28;20593;-41
2023/10/16 08:56:30;;;;;;;4.78;2.35;;;;;;;;;;4991557;28;20194;-42
2023/10/16 08:59:01;;;;;;;5.72;2.53;;;;;;;;;;4992788;28;20446;-43
2023/10/16 09:01:29;;;;;;;4.43;2.00;;;;;;;;;;4992767;28;20194;-41
2023/10/16 09:04:05;;;;;;;3.08;2.08;;;;;;;;;;4992358;28;20618;-41
2023/10/16 09:06:37;;;;;;;3.22;2.17;;;;;;;;;;4975651;28;20209;-41
2023/10/16 09:09:13;;;;;;;5.85;2.75;;;;;;;;;;4992463;28;20227;-42
2023/10/16 09:11:44;;;;;;;3.55;2.20;;;;;;;;;;4992517;28;20260;-41
2023/10/16 09:14:16;;;;;;;5.35;2.53;;;;;;;;;;4992236;28;20237;-41
2023/10/16 09:16:55;;;;;;;4.57;3.10;;;;;;;;;;4992270;28;20212;-41
2023/10/16 09:19:33;;;;;;;4.57;2.28;;;;;;;;;;4992518;28;20198;-41
2023/10/16 09:22:04;;;;;;;4.15;2.20;;;;;;;;;;4992075;28;20704;-41
2023/10/16 09:24:33;;;;;;;7.47;3.42;;;;;;;;;;4992218;28;20209;-40
2023/10/16 09:27:11;;;;;;;4.53;2.35;;;;;;;;;;4992275;28;20285;-42
2023/10/16 09:29:44;;;;;;;3.47;2.10;;;;;;;;;;4992332;28;20201;-41
2023/10/16 09:32:13;;;;;;;5.43;2.45;;;;;;;;;;4992264;28;20234;-41
2023/10/16 09:34:41;;;;;;;3.55;1.90;;;;;;;;;;4992075;28;20248;-42
2023/10/16 09:37:15;;;;;;;3.53;2.08;;;;;;;;;;4992027;28;20350;-41
2023/10/16 09:39:49;;;;;;;4.35;2.45;;;;;;;;;;4992078;28;20201;-42
2023/10/16 09:42:24;;;;;;;3.30;2.03;;;;;;;;;;4995562;28;20276;-43
2023/10/16 09:45:07;;;;;;;3.83;2.15;;;;;;;;;;4996049;28;20252;-41
2023/10/16 09:47:38;;;;;;;3.65;2.33;;;;;;;;;;4996203;28;20225;-41
2023/10/16 09:50:16;;;;;;;3.78;1.88;;;;;;;;;;4996121;28;20547;-41
2023/10/16 09:52:48;;;;;;;6.63;2.33;;;;;;;;;;4995964;28;20737;-42
2023/10/16 09:55:19;;;;;;;4.35;2.00;;;;;;;;;;4996013;28;20253;-41
2023/10/16 09:57:52;;;;;;;3.55;1.85;;;;;;;;;;4995692;28;20202;-41
2023/10/16 10:00:32;;;;;;;2.83;1.80;;;;;;;;;;4996067;28;20194;-41
2023/10/16 10:03:07;;;;;;;3.55;2.20;;;;;;;;;;4995701;28;20545;-41
2023/10/16 10:05:48;;;;;;;6.35;1.80;;;;;;;;;;4995990;28;20235;-41
2023/10/16 10:08:27;;;;;;;4.00;1.95;;;;;;;;;;4979481;28;20212;-41
2023/10/16 10:17:09;;;;;;;4.38;1.75;;;;;;;;;;4896871;29;20209;-41
2023/10/16 10:19:41;;;;;;;6.43;2.17;;;;;;;;;;4897060;29;20343;-41
2023/10/16 10:22:17;;;;;;;3.33;1.65;;;;;;;;;;4897088;29;20217;-41
2023/10/16 10:24:51;;;;;;;1.95;1.50;;;;;;;;;;4897093;29;20213;-41
2023/10/16 10:27:18;;;;;;;2.67;1.67;;;;;;;;;;4896828;29;20706;-41
2023/10/16 10:29:49;;;;;;;4.32;2.03;;;;;;;;;;4896897;29;20625;-41
2023/10/16 10:32:16;;;;;;;2.17;1.63;;;;;;;;;;4896910;29;20202;-41
2023/10/16 10:34:44;;;;;;;8.32;1.83;;;;;;;;;;4896780;29;20240;-41
2023/10/16 10:37:46;;;;;;;5.00;1.80;;;;;;;;;;4896801;29;20217;-41
2023/10/16 10:40:24;;;;;;;3.72;1.80;;;;;;;;;;4896747;29;20213;-42
2023/10/16 10:42:55;;;;;;;2.95;1.52;;;;;;;;;;4896734;29;20198;-42
2023/10/16 10:45:33;;;;;;;4.18;1.52;;;;;;;;;;4882019;29;20354;-41
2023/10/16 10:48:06;;;;;;;2.65;1.40;;;;;;;;;;4896596;29;20226;-41
2023/10/16 10:50:34;;;;;;;5.68;1.70;;;;;;;;;;4896612;29;20245;-41
2023/10/16 10:53:15;;;;;;;4.50;1.63;;;;;;;;;;4904463;28;20209;-41
2023/10/16 10:55:55;;;;;;;2.40;1.50;;;;;;;;;;4994713;28;20293;-41
2023/10/16 10:58:33;;;;;;;4.15;1.60;;;;;;;;;;4994596;28;20209;-42
2023/10/16 11:01:26;;;;;;;6.40;1.60;;;;;;;;;;4995221;28;20210;-41
2023/10/16 11:03:53;;;;;;;5.72;1.73;;;;;;;;;;4994375;28;20659;-42
2023/10/16 11:06:43;;;;;;;2.92;1.30;;;;;;;;;;4994600;28;20666;-41
2023/10/16 11:09:12;;;;;;;3.90;1.35;;;;;;;;;;4994743;28;20217;-42
2023/10/16 11:11:39;;;;;;;4.35;1.85;;;;;;;;;;4994310;28;20209;-41
2023/10/16 11:14:07;;;;;;;6.07;1.52;;;;;;;;;;4994434;28;20226;-41
2023/10/16 11:16:45;;;;;;;4.47;1.50;;;;;;;;;;4994840;28;20208;-41
2023/10/16 11:19:18;;;;;;;6.47;1.90;;;;;;;;;;4994345;28;20213;-41
2023/10/16 11:21:47;;;;;;;2.22;1.42;;;;;;;;;;4994624;28;20256;-42
2023/10/16 11:24:14;;;;;;;2.08;1.30;;;;;;;;;;4994581;28;20663;-42
2023/10/16 11:26:42;;;;;;;4.68;1.55;;;;;;;;;;4976821;28;20482;-41
2023/10/16 11:29:15;;;;;;;3.45;1.38;;;;;;;;;;4994229;28;20678;-41
2023/10/16 11:31:44;;;;;;;2.95;1.30;;;;;;;;;;4977944;28;20214;-41
2023/10/16 11:34:21;;;;;;;1.77;1.10;;;;;;;;;;4994204;28;20598;-41
2023/10/16 11:36:50;;;;;;;5.57;1.17;;;;;;;;;;4993998;28;20790;-42
2023/10/16 11:39:21;;;;;;;2.65;1.20;;;;;;;;;;4994008;28;20197;-43
2023/10/16 11:41:49;;;;;;;2.03;1.00;;;;;;;;;;4993928;28;20217;-41
2023/10/16 11:44:17;;;;;;;2.72;1.10;;;;;;;;;;4993892;28;20288;-41
2023/10/16 11:46:52;;;;;;;4.82;1.30;;;;;;;;;;4993744;28;20541;-42
2023/10/16 11:51:57;;;;;;;4.70;1.30;;;;;;;;;;4993770;28;20293;-43
2023/10/16 11:54:28;;;;;;;6.50;1.20;;;;;;;;;;4993655;28;20253;-41
2023/10/16 11:56:59;;;;;;;5.15;1.40;;;;;;;;;;4993767;28;20294;-40
2023/10/16 11:59:28;;;;;;;5.13;1.15;;;;;;;;;;4993682;28;20608;-41
2023/10/16 12:02:10;;;;;;;6.60;1.40;;;;;;;;;;4993461;28;20289;-41
2023/10/16 12:04:42;;;;;;;5.03;1.20;;;;;;;;;;4993646;28;20229;-41
2023/10/16 12:07:13;;;;;;;4.18;0.85;;;;;;;;;;4993292;28;20534;-40
2023/10/16 12:09:42;;;;;;;2.90;1.00;;;;;;;;;;4993562;28;20686;-41
2023/10/16 12:12:19;;;;;;;3.50;1.10;;;;;;;;;;4993528;28;20206;-42
2023/10/16 12:14:48;;;;;;;2.55;1.13;;;;;;;;;;4993326;28;20252;-42
2023/10/16 12:17:19;;;;;;;4.45;1.20;;;;;;;;;;4993165;28;20212;-41
2023/10/16 12:19:47;;;;;;;5.05;2.03;;;;;;;;;;4993459;28;20194;-41
2023/10/16 12:22:20;;;;;;;3.35;1.00;;;;;;;;;;4993485;28;20204;-42
2023/10/16 12:24:49;;;;;;;1.75;0.90;;;;;;;;;;5008070;28;20601;-42
2023/10/16 12:27:16;;;;;;;1.23;1.10;;;;;;;;;;5006178;28;20237;-43
2023/10/16 12:29:44;;;;;;;3.08;0.98;;;;;;;;;;4992283;28;20230;-40
2023/10/16 12:32:12;;;;;;;3.15;1.10;;;;;;;;;;5007898;28;20653;-39
2023/10/16 12:34:41;;;;;;;3.22;0.90;;;;;;;;;;5004698;28;20245;-40
2023/10/16 12:37:09;;;;;;;8.25;1.02;;;;;;;;;;5007188;28;20296;-38
2023/10/16 12:39:45;;;;;;;1.30;0.85;;;;;;;;;;5012149;28;20234;-38
2023/10/16 12:42:14;;;;;;;3.13;1.15;;;;;;;;;;5010281;28;20277;-38
2023/10/16 12:44:42;;;;;;;2.40;0.88;;;;;;;;;;4994477;28;20225;-38
2023/10/16 12:47:11;;;;;;;2.45;0.80;;;;;;;;;;5012838;28;20697;-38
2023/10/16 12:49:54;;;;;;;3.45;1.10;;;;;;;;;;5012975;28;20217;-38
2023/10/16 12:52:21;;;;;;;1.63;0.95;;;;;;;;;;5012880;28;20244;-38
2023/10/16 12:54:52;;;;;;;1.35;0.82;;;;;;;;;;5009424;28;20288;-38
2023/10/16 12:57:21;;;;;;;2.50;1.15;;;;;;;;;;5012372;28;20228;-39
2023/10/16 12:59:49;;;;;;;1.48;0.80;;;;;;;;;;5012155;28;20709;-38
2023/10/16 13:02:25;;;;;;;2.15;1.15;;;;;;;;;;5012949;28;20263;-38
2023/10/16 13:04:55;;;;;;;2.20;1.20;;;;;;;;;;5012821;28;20217;-38
2023/10/16 13:07:24;;;;;;;2.88;1.30;;;;;;;;;;5012998;28;20260;-39
2023/10/16 13:10:15;;;;;;;2.85;1.08;;;;;;;;;;5013057;28;20217;-38
2023/10/16 13:12:43;;;;;;;5.82;1.20;;;;;;;;;;5012702;28;20217;-38
2023/10/16 13:15:15;;;;;;;2.45;0.98;;;;;;;;;;5012401;28;20241;-38
2023/10/16 13:17:44;;;;;;;2.53;1.30;;;;;;;;;;5013165;28;20300;-38
2023/10/16 13:20:17;;;;;;;3.08;1.13;;;;;;;;;;5013157;28;20269;-38
2023/10/16 13:22:52;;;;;;;3.78;1.02;;;;;;;;;;5012976;28;20232;-38
2023/10/16 13:25:22;;;;;;;2.05;1.05;;;;;;;;;;5012468;28;20224;-39
2023/10/16 13:27:51;;;;;;;2.47;1.40;;;;;;;;;;5012641;28;20750;-38
2023/10/16 13:30:22;;;;;;;1.83;0.90;;;;;;;;;;5012700;28;20686;-39
2023/10/16 13:32:50;;;;;;;3.33;1.05;;;;;;;;;;5013045;28;20235;-38
2023/10/16 13:35:20;;;;;;;3.45;1.08;;;;;;;;;;5012547;28;20241;-39
2023/10/16 13:37:50;;;;;;;3.10;1.10;;;;;;;;;;5012846;28;20228;-38
2023/10/16 13:40:21;;;;;;;1.42;0.85;;;;;;;;;;5012938;28;20249;-38
2023/10/16 13:42:54;;;;;;;1.70;0.90;;;;;;;;;;5012145;28;20217;-38
2023/10/16 13:45:23;;;;;;;3.05;0.93;;;;;;;;;;5012774;28;20225;-38
2023/10/16 13:47:50;;;;;;;1.40;1.02;;;;;;;;;;5012994;28;20226;-39
2023/10/16 13:50:24;;;;;;;4.53;1.20;;;;;;;;;;5012755;28;20232;-39
2023/10/16 13:52:52;;;;;;;2.03;1.13;;;;;;;;;;5012712;28;20291;-39
2023/10/16 13:55:22;;;;;;;1.90;0.90;;;;;;;;;;5011715;28;20759;-39
2023/10/16 13:57:50;;;;;;;1.73;1.02;;;;;;;;;;5012019;28;20224;-39
2023/10/16 14:00:28;;;;;;;1.92;1.20;;;;;;;;;;5012119;28;20221;-38
2023/10/16 14:03:05;;;;;;;3.15;1.10;;;;;;;;;;5007499;28;20245;-38
2023/10/16 14:05:40;;;;;;;4.30;1.45;;;;;;;;;;5011828;28;20221;-38
2023/10/16 14:08:14;;;;;;;4.30;1.42;;;;;;;;;;5012157;28;20705;-38
2023/10/16 14:10:47;;;;;;;3.65;1.50;;;;;;;;;;5011895;28;20213;-39
2023/10/16 14:13:21;;;;;;;4.30;1.05;;;;;;;;;;5008475;28;20717;-38
2023/10/16 14:15:49;;;;;;;6.30;1.10;;;;;;;;;;5002664;28;20682;-38
2023/10/16 14:18:21;;;;;;;2.78;1.23;;;;;;;;;;5000975;28;20301;-39
2023/10/16 14:20:48;;;;;;;3.78;1.20;;;;;;;;;;5003803;28;20276;-38
2023/10/16 14:23:17;;;;;;;3.50;1.25;;;;;;;;;;5012192;28;20223;-39
2023/10/16 14:25:48;;;;;;;2.58;1.25;;;;;;;;;;5010680;28;20237;-39
2023/10/16 14:28:40;;;;;;;2.83;1.35;;;;;;;;;;5013597;28;20229;-39
2023/10/16 14:31:08;;;;;;;1.73;1.15;;;;;;;;;;5014521;28;20221;-39
2023/10/16 14:33:39;;;;;;;4.78;1.70;;;;;;;;;;5014328;28;20240;-39
2023/10/16 14:36:09;;;;;;;6.25;2.05;;;;;;;;;;5014005;28;20260;-40
2023/10/16 14:38:37;;;;;;;4.00;1.80;;;;;;;;;;5014229;28;20229;-38
2023/10/16 14:41:09;;;;;;;3.10;1.90;;;;;;;;;;5013908;28;20233;-39
2023/10/16 14:43:36;;;;;;;8.13;1.50;;;;;;;;;;5014133;28;20226;-38
2023/10/16 14:46:07;;;;;;;2.47;1.17;;;;;;;;;;5014068;28;20236;-38
2023/10/16 14:48:35;;;;;;;2.55;1.52;;;;;;;;;;5015179;28;20324;-40
2023/10/16 14:51:04;;;;;;;4.32;1.40;;;;;;;;;;5033094;28;20225;-39
2023/10/16 14:53:33;;;;;;;3.47;1.55;;;;;;;;;;5020186;28;20230;-38
2023/10/16 14:56:00;;;;;;;5.43;1.02;;;;;;;;;;5032779;28;20590;-40
2023/10/16 14:58:27;;;;;;;5.60;1.50;;;;;;;;;;5019394;28;20221;-38
2023/10/16 15:01:15;;;;;;;2.28;1.20;;;;;;;;;;5013632;28;20260;-38
2023/10/16 15:03:44;;;;;;;5.50;1.52;;;;;;;;;;5013335;28;20229;-38
2023/10/16 15:06:13;;;;;;;1.92;1.10;;;;;;;;;;5016275;28;20213;-38
2023/10/16 15:08:41;;;;;;;3.63;1.75;;;;;;;;;;5019553;28;20291;-39
2023/10/16 15:11:10;;;;;;;4.55;1.50;;;;;;;;;;5013047;28;20233;-40
2023/10/16 15:13:38;;;;;;;4.15;1.70;;;;;;;;;;5013230;28;20312;-38
2023/10/16 15:16:09;;;;;;;7.53;2.35;;;;;;;;;;5012824;28;20705;-38
2023/10/16 15:18:41;;;;;;;4.72;1.80;;;;;;;;;;4992538;28;20238;-39
2023/10/16 15:21:09;;;;;;;3.72;1.75;;;;;;;;;;5010449;28;20237;-38
2023/10/16 15:23:36;;;;;;;3.05;1.92;;;;;;;;;;5019033;28;20225;-38
2023/10/16 15:26:05;;;;;;;5.03;2.30;;;;;;;;;;5010380;28;20724;-40
2023/10/16 15:28:32;;;;;;;3.75;1.67;;;;;;;;;;5029950;28;20676;-39
2023/10/16 15:31:20;;;;;;;6.28;1.80;;;;;;;;;;5013026;28;20583;-39
2023/10/16 15:33:48;;;;;;;4.15;1.40;;;;;;;;;;5013415;28;20252;-39
2023/10/16 15:36:17;;;;;;;4.28;1.45;;;;;;;;;;5012539;28;20248;-41
2023/10/16 15:38:46;;;;;;;2.05;1.20;;;;;;;;;;5012926;28;20229;-39
2023/10/16 15:41:13;;;;;;;1.67;1.20;;;;;;;;;;5012019;28;20227;-43
2023/10/16 15:43:42;;;;;;;3.22;1.38;;;;;;;;;;5009949;28;20630;-40
2023/10/16 15:46:23;;;;;;;3.58;1.67;;;;;;;;;;5012061;28;20282;-39
2023/10/16 15:48:51;;;;;;;6.53;1.90;;;;;;;;;;5013920;28;20689;-39
2023/10/16 15:51:18;;;;;;;2.42;1.40;;;;;;;;;;5032932;28;20719;-41
2023/10/16 15:53:50;;;;;;;3.55;1.58;;;;;;;;;;5029121;28;20209;-39
2023/10/16 15:56:24;;;;;;;1.90;1.42;;;;;;;;;;5030446;28;20216;-39
2023/10/16 15:58:52;;;;;;;3.35;1.30;;;;;;;;;;5020305;28;20531;-39
2023/10/16 16:01:20;;;;;;;2.90;1.30;;;;;;;;;;5004747;28;20276;-41
2023/10/16 16:03:47;;;;;;;3.58;1.70;;;;;;;;;;5008589;28;20221;-40
2023/10/16 16:06:15;;;;;;;4.05;1.70;;;;;;;;;;5008667;28;20228;-39
2023/10/16 16:08:46;;;;;;;7.10;2.25;;;;;;;;;;5009985;28;20599;-40
2023/10/16 16:11:13;;;;;;;5.20;2.33;;;;;;;;;;5012136;28;20233;-39
2023/10/16 16:13:43;;;;;;;5.00;1.88;;;;;;;;;;5011475;28;20653;-40
2023/10/16 16:16:12;;;;;;;2.83;1.70;;;;;;;;;;5011075;28;20225;-40
2023/10/16 16:18:39;;;;;;;6.10;2.00;;;;;;;;;;5012466;28;20221;-41
2023/10/16 16:21:10;;;;;;;4.22;2.30;;;;;;;;;;5012148;28;20244;-40
2023/10/16 16:23:39;;;;;;;4.22;2.17;;;;;;;;;;5012682;28;20248;-39
2023/10/16 16:26:09;;;;;;;3.97;2.70;;;;;;;;;;5011677;28;20256;-39
2023/10/16 16:28:37;;;;;;;6.68;2.08;;;;;;;;;;5011729;28;20252;-40
2023/10/16 16:31:04;;;;;;;6.70;2.35;;;;;;;;;;5014559;28;20221;-39
2023/10/16 16:33:32;;;;;;;6.43;2.40;;;;;;;;;;5014792;28;20232;-39
2023/10/16 16:36:00;;;;;;;4.97;2.63;;;;;;;;;;5012034;28;20248;-39
2023/10/16 16:38:27;;;;;;;3.95;2.13;;;;;;;;;;5012104;28;20233;-39
2023/10/16 16:40:54;;;;;;;8.00;2.08;;;;;;;;;;5008055;28;20218;-40
2023/10/16 16:43:21;;;;;;;5.18;2.22;;;;;;;;;;5016238;28;20228;-39
2023/10/16 16:45:48;;;;;;;8.30;4.78;;;;;;;;;;5018924;28;20225;-41
2023/10/16 16:48:17;;;;;;;32.45;14.50;;;;;;;;;;5017076;28;20574;-39
2023/10/16 16:50:45;;;;;;;45.08;19.52;;;;;;;;;;5030390;28;20225;-41
2023/10/16 16:53:13;;;;;;;32.17;18.35;;;;;;;;;;5030801;28;20308;-39
2023/10/16 16:55:40;;;;;;;22.80;7.50;;;;;;;;;;5031232;28;20232;-39
2023/10/16 16:58:10;;;;;;;10.52;4.60;;;;;;;;;;5030947;28;20611;-40
2023/10/16 17:00:38;;;;;;;15.38;6.85;;;;;;;;;;5031306;28;20225;-39
2023/10/16 17:03:05;;;;;;;34.92;7.68;;;;;;;;;;5030452;28;20242;-41
2023/10/16 17:05:35;;;;;;;9.32;3.60;;;;;;;;;;5028471;28;20233;-40
2023/10/16 17:08:03;;;;;;;11.68;4.45;;;;;;;;;;5011179;28;20214;-40
2023/10/16 17:10:31;;;;;;;8.02;3.55;;;;;;;;;;5008212;28;20626;-39
2023/10/16 17:12:58;;;;;;;7.53;2.78;;;;;;;;;;4998033;28;20437;-39
2023/10/16 17:15:26;;;;;;;6.13;2.67;;;;;;;;;;5008520;28;20801;-40
2023/10/16 17:17:54;;;;;;;13.40;3.58;;;;;;;;;;5010154;28;20287;-39